Time;durP1;ratioP1;P1;durP2;ratioP2;P2;SDS_P1;SDS_P2;PMS_P1;PMS_P2;Temp;Humidity;BMP_temperature;BMP_pressure;BME280_temperature;BME280_humidity;BME280_pressure;Samples;Min_cycle;Max_cycle;Signal;HPM_P1;HPM_P2
2023/07/09 00:03:01;;;;;;;8.52;4.85;;;32.70;54.60;;;;;;10534077;28;20266;-38
2023/07/09 00:08:03;;;;;;;6.25;5.30;;;32.60;54.60;;;;;;10533728;28;20481;-33
2023/07/09 00:13:05;;;;;;;7.38;5.40;;;32.50;54.70;;;;;;10528232;28;20075;-34
2023/07/09 00:18:09;;;;;;;6.13;4.90;;;32.50;54.90;;;;;;10535514;28;20143;-37
2023/07/09 00:23:13;;;;;;;9.77;5.72;;;32.50;54.90;;;;;;10535250;28;20102;-35
2023/07/09 00:28:16;;;;;;;9.60;6.15;;;32.40;55.00;;;;;;10527567;28;20105;-33
2023/07/09 00:33:19;;;;;;;7.65;5.80;;;32.40;55.20;;;;;;10535546;28;20070;-37
2023/07/09 00:38:23;;;;;;;6.70;5.20;;;32.30;55.20;;;;;;10536407;28;20048;-36
2023/07/09 00:43:25;;;;;;;7.47;5.55;;;32.30;55.30;;;;;;10514202;28;20052;-35
2023/07/09 00:48:31;;;;;;;7.25;5.82;;;32.30;55.40;;;;;;10525519;28;20505;-36
2023/07/09 00:53:33;;;;;;;6.00;5.05;;;32.20;55.50;;;;;;10549429;28;20373;-39
2023/07/09 00:58:38;;;;;;;7.10;5.20;;;32.10;55.50;;;;;;10525151;28;20488;-34
2023/07/09 01:03:44;;;;;;;6.32;4.82;;;32.10;55.60;;;;;;10536600;28;20074;-34
2023/07/09 01:08:53;;;;;;;5.80;5.20;;;32.10;55.70;;;;;;10543506;28;20520;-38
2023/07/09 01:13:57;;;;;;;6.40;5.63;;;32.10;55.70;;;;;;10546386;28;20052;-39
2023/07/09 01:19:01;;;;;;;6.63;5.40;;;32.00;55.80;;;;;;10539821;28;20131;-33
2023/07/09 01:24:14;;;;;;;6.50;5.18;;;31.90;56.40;;;;;;10521197;28;20044;-40
2023/07/09 01:29:16;;;;;;;7.78;5.10;;;31.90;56.00;;;;;;10528925;28;20051;-35
2023/07/09 01:34:18;;;;;;;6.75;5.45;;;31.90;56.00;;;;;;10530276;28;20064;-35
2023/07/09 01:39:21;;;;;;;8.85;6.28;;;31.90;56.10;;;;;;10536274;28;20052;-40
2023/07/09 01:44:23;;;;;;;8.35;5.80;;;31.80;56.10;;;;;;10530568;28;20185;-36
2023/07/09 01:49:29;;;;;;;6.88;5.88;;;31.70;56.20;;;;;;10528196;28;20136;-34
2023/07/09 01:54:33;;;;;;;6.85;5.30;;;31.70;56.20;;;;;;10539378;28;20130;-37
2023/07/09 01:59:41;;;;;;;7.22;5.43;;;31.70;56.30;;;;;;10520239;28;20054;-38
2023/07/09 02:04:43;;;;;;;7.90;5.20;;;31.70;56.40;;;;;;10523437;28;20060;-36
2023/07/09 02:09:46;;;;;;;6.90;5.60;;;31.60;56.50;;;;;;10533274;28;20456;-33
2023/07/09 02:14:48;;;;;;;7.53;5.57;;;31.60;56.50;;;;;;10539034;28;20587;-40
2023/07/09 02:19:50;;;;;;;5.85;5.05;;;31.50;56.60;;;;;;10530156;28;20094;-37
2023/07/09 02:24:54;;;;;;;6.60;5.43;;;31.50;56.70;;;;;;10533647;28;20587;-38
2023/07/09 02:29:56;;;;;;;8.85;5.72;;;31.50;56.80;;;;;;10533903;28;20479;-38
2023/07/09 02:34:58;;;;;;;8.20;5.93;;;31.50;56.90;;;;;;10542313;28;20072;-39
2023/07/09 02:40:01;;;;;;;5.78;5.15;;;31.40;56.90;;;;;;10534092;28;20052;-39
2023/07/09 02:45:04;;;;;;;6.75;5.25;;;31.40;57.00;;;;;;10531058;28;20040;-40
2023/07/09 02:50:06;;;;;;;7.60;5.32;;;31.30;57.10;;;;;;10542047;28;20079;-34
2023/07/09 02:55:10;;;;;;;6.82;5.75;;;31.30;57.30;;;;;;10510908;28;20048;-35
2023/07/09 03:15:32;;;;;;;7.70;5.80;;;31.20;57.00;;;;;;10547025;27;20113;-32
2023/07/09 03:20:33;;;;;;;8.60;5.55;;;31.10;57.80;;;;;;10548794;28;20568;-34
2023/07/09 03:25:35;;;;;;;8.35;5.35;;;30.90;58.30;;;;;;10544517;28;20052;-33
2023/07/09 03:30:42;;;;;;;9.27;6.18;;;31.00;57.90;;;;;;10548495;28;20076;-34
2023/07/09 03:35:44;;;;;;;6.95;4.70;;;30.90;58.10;;;;;;10545700;28;20075;-34
2023/07/09 03:40:50;;;;;;;8.07;5.35;;;30.90;58.00;;;;;;10573707;28;20048;-34
2023/07/09 03:45:53;;;;;;;9.52;6.13;;;30.90;58.10;;;;;;10567036;28;20046;-33
2023/07/09 03:50:55;;;;;;;7.28;5.07;;;30.80;58.20;;;;;;10558818;28;20079;-33
2023/07/09 03:55:59;;;;;;;7.45;5.18;;;30.80;58.40;;;;;;10543097;28;20066;-33
2023/07/09 04:01:02;;;;;;;7.32;5.35;;;30.80;58.20;;;;;;10563856;28;20113;-33
2023/07/09 04:06:04;;;;;;;8.13;5.28;;;30.80;58.30;;;;;;10576092;28;20101;-33
2023/07/09 04:11:06;;;;;;;6.70;5.28;;;30.80;58.40;;;;;;10557167;28;20051;-32
2023/07/09 04:16:10;;;;;;;6.30;5.00;;;30.70;58.50;;;;;;10566341;28;20127;-35
2023/07/09 04:21:12;;;;;;;6.55;5.18;;;30.70;58.60;;;;;;10565246;28;20054;-33
2023/07/09 04:26:15;;;;;;;7.20;4.97;;;30.70;58.70;;;;;;10558602;28;20075;-33
2023/07/09 04:31:18;;;;;;;7.18;5.10;;;30.70;58.70;;;;;;10548371;28;20087;-34
2023/07/09 04:36:20;;;;;;;5.57;4.88;;;30.60;58.70;;;;;;10533285;28;20653;-33
2023/07/09 04:41:22;;;;;;;5.28;4.40;;;30.60;58.70;;;;;;10560763;28;20822;-31
2023/07/09 04:46:25;;;;;;;4.60;4.10;;;30.60;58.70;;;;;;10556123;28;20074;-33
2023/07/09 04:51:27;;;;;;;6.65;4.57;;;30.50;58.70;;;;;;10537061;28;20054;-32
2023/07/09 04:56:30;;;;;;;4.50;4.10;;;30.50;58.60;;;;;;10566154;28;20051;-33
2023/07/09 05:01:33;;;;;;;7.07;4.18;;;30.50;58.70;;;;;;10530401;28;20719;-32
2023/07/09 05:06:36;;;;;;;4.53;4.03;;;30.50;58.60;;;;;;10532675;28;21573;-32
2023/07/09 05:11:37;;;;;;;7.20;4.30;;;30.50;58.70;;;;;;10527963;28;20120;-32
2023/07/09 05:16:40;;;;;;;4.43;4.00;;;30.50;58.70;;;;;;10519678;28;20044;-32
2023/07/09 05:21:42;;;;;;;9.45;4.20;;;30.40;58.60;;;;;;10533047;28;20152;-32
2023/07/09 05:26:44;;;;;;;7.22;3.85;;;30.40;58.60;;;;;;10547514;28;20450;-32
2023/07/09 05:31:47;;;;;;;4.43;3.80;;;30.40;58.60;;;;;;10531263;28;20056;-32
2023/07/09 05:36:49;;;;;;;6.72;4.05;;;30.40;58.60;;;;;;10534619;28;20535;-34
2023/07/09 05:41:51;;;;;;;7.22;4.53;;;30.40;58.40;;;;;;10528450;28;20826;-32
2023/07/09 05:46:54;;;;;;;6.75;4.45;;;30.40;58.50;;;;;;10544094;28;20141;-33
2023/07/09 05:51:56;;;;;;;5.95;4.40;;;30.40;58.60;;;;;;10546000;28;20144;-32
2023/07/09 05:56:58;;;;;;;10.45;5.05;;;30.40;58.50;;;;;;10530638;28;20083;-33
2023/07/09 06:02:02;;;;;;;6.07;4.43;;;29.90;59.60;;;;;;10516311;28;20040;-31
2023/07/09 06:07:04;;;;;;;9.38;4.82;;;30.00;58.30;;;;;;10520478;28;20040;-33
2023/07/09 06:12:07;;;;;;;9.50;5.25;;;29.70;57.70;;;;;;10528634;28;20058;-33
2023/07/09 06:17:10;;;;;;;6.63;3.97;;;29.60;57.10;;;;;;10518831;28;20119;-32
2023/07/09 06:22:12;;;;;;;8.98;4.68;;;29.80;59.90;;;;;;10527562;28;20083;-35
2023/07/09 06:27:14;;;;;;;5.60;3.55;;;29.90;58.40;;;;;;10526976;28;20133;-33
2023/07/09 06:32:17;;;;;;;8.77;5.93;;;29.90;57.90;;;;;;10517815;28;20404;-33
2023/07/09 06:37:19;;;;;;;6.00;4.00;;;29.20;61.00;;;;;;10528859;28;20137;-33
2023/07/09 06:42:21;;;;;;;8.00;4.13;;;29.70;59.90;;;;;;10525177;28;20091;-33
2023/07/09 06:47:24;;;;;;;5.10;3.70;;;29.30;61.00;;;;;;10516159;28;20507;-33
2023/07/09 06:52:26;;;;;;;8.93;5.50;;;30.00;59.10;;;;;;10524444;28;20132;-33
2023/07/09 06:57:27;;;;;;;7.80;4.43;;;29.90;58.10;;;;;;10523755;28;20154;-33
2023/07/09 07:02:31;;;;;;;10.30;3.65;;;29.90;58.40;;;;;;10527620;28;20051;-33
2023/07/09 07:07:33;;;;;;;4.97;3.72;;;30.20;57.60;;;;;;10517395;28;20075;-34
2023/07/09 07:12:43;;;;;;;6.25;3.78;;;30.30;57.40;;;;;;10524345;28;20087;-33
2023/07/09 07:17:47;;;;;;;6.22;3.38;;;30.20;57.40;;;;;;10524498;28;20079;-33
2023/07/09 07:22:48;;;;;;;7.05;4.10;;;30.30;57.10;;;;;;10527194;28;20090;-31
2023/07/09 07:27:51;;;;;;;4.50;3.00;;;30.30;56.90;;;;;;10519331;28;20056;-32
2023/07/09 07:32:54;;;;;;;6.50;4.10;;;30.40;57.00;;;;;;10499483;28;20396;-33
2023/07/09 07:37:56;;;;;;;4.22;3.00;;;30.30;57.00;;;;;;10505189;28;20049;-34
2023/07/09 07:42:58;;;;;;;5.95;3.55;;;30.30;57.00;;;;;;10521957;28;20051;-33
2023/07/09 07:48:01;;;;;;;4.82;3.17;;;30.00;57.80;;;;;;10531677;28;20094;-33
2023/07/09 07:53:03;;;;;;;8.45;3.70;;;30.20;56.70;;;;;;10510780;28;20055;-34
2023/07/09 07:58:05;;;;;;;4.32;3.25;;;29.10;59.00;;;;;;10496469;28;20135;-34
2023/07/09 08:03:08;;;;;;;5.47;3.00;;;29.50;59.10;;;;;;10528777;28;20047;-34
2023/07/09 08:08:11;;;;;;;5.38;3.20;;;29.70;58.50;;;;;;10542334;28;20136;-34
2023/07/09 08:13:13;;;;;;;6.13;3.53;;;28.50;59.30;;;;;;10532681;28;20086;-33
2023/07/09 08:18:16;;;;;;;4.10;2.95;;;26.80;65.50;;;;;;10531256;28;20049;-34
2023/07/09 08:23:18;;;;;;;4.13;2.85;;;27.10;68.40;;;;;;10523731;28;20403;-34
2023/07/09 08:28:20;;;;;;;4.40;3.00;;;27.80;64.90;;;;;;10517654;28;20082;-33
2023/07/09 08:33:24;;;;;;;5.03;2.88;;;28.20;63.60;;;;;;10519392;28;20143;-31
2023/07/09 08:38:26;;;;;;;5.65;3.33;;;28.30;63.50;;;;;;10523751;28;20374;-32
2023/07/09 08:43:35;;;;;;;6.38;3.38;;;26.20;72.10;;;;;;10529994;28;20268;-33
2023/07/09 08:48:43;;;;;;;5.88;3.47;;;25.50;77.80;;;;;;10537802;28;20072;-33
2023/07/09 08:53:49;;;;;;;6.85;3.28;;;27.10;69.80;;;;;;10530310;28;20051;-34
2023/07/09 08:58:55;;;;;;;6.43;3.33;;;26.90;71.70;;;;;;10526354;28;20113;-34
2023/07/09 09:04:03;;;;;;;4.78;3.10;;;28.20;65.50;;;;;;10531306;28;20071;-34
2023/07/09 09:09:14;;;;;;;5.07;2.85;;;28.40;65.60;;;;;;10531803;28;20040;-34
2023/07/09 09:14:25;;;;;;;6.72;3.42;;;28.30;64.90;;;;;;10525862;28;20754;-33
2023/07/09 09:19:36;;;;;;;3.30;2.50;;;27.80;67.80;;;;;;10524915;28;21639;-33
2023/07/09 09:24:42;;;;;;;;;;;28.00;67.40;;;;;;10527732;28;20062;-32
2023/07/09 09:29:43;;;;;;;4.43;2.60;;;27.70;68.30;;;;;;10528134;28;20045;-34
2023/07/09 09:34:47;;;;;;;4.32;2.60;;;26.90;73.50;;;;;;10530994;28;20477;-32
2023/07/09 09:39:48;;;;;;;3.10;2.40;;;27.50;70.80;;;;;;10526750;28;20403;-35
2023/07/09 09:44:50;;;;;;;2.70;2.13;;;27.80;69.10;;;;;;10528278;28;20062;-33
2023/07/09 09:49:54;;;;;;;5.13;2.55;;;28.00;68.40;;;;;;10499146;28;20171;-34
2023/07/09 09:55:02;;;;;;;5.03;2.72;;;29.40;62.20;;;;;;10528458;28;20083;-33
2023/07/09 10:00:08;;;;;;;4.25;2.35;;;29.80;61.10;;;;;;10522919;28;20142;-40
2023/07/09 10:05:14;;;;;;;5.00;2.00;;;29.00;62.20;;;;;;10513674;28;20473;-41
2023/07/09 10:10:23;;;;;;;3.60;2.10;;;28.00;66.00;;;;;;10528208;28;20035;-43
2023/07/09 10:15:35;;;;;;;4.18;1.88;;;27.90;67.60;;;;;;10532792;28;20142;-41
2023/07/09 10:20:47;;;;;;;3.95;2.20;;;27.80;69.90;;;;;;10526369;28;20066;-37
2023/07/09 10:25:54;;;;;;;4.07;2.15;;;27.60;70.10;;;;;;10520212;28;20076;-36
2023/07/09 10:31:08;;;;;;;5.93;2.15;;;27.40;69.50;;;;;;10508071;28;20083;-35
2023/07/09 10:36:30;;;;;;;5.22;2.20;;;27.50;72.10;;;;;;10519348;28;20083;-39
2023/07/09 10:41:35;;;;;;;4.13;2.10;;;27.50;70.80;;;;;;10520296;28;20044;-37
2023/07/09 10:46:40;;;;;;;5.32;2.17;;;27.40;69.70;;;;;;10524351;28;20071;-36
2023/07/09 10:51:49;;;;;;;4.40;2.10;;;27.60;70.30;;;;;;10514088;28;20127;-36
2023/07/09 10:56:58;;;;;;;5.85;2.65;;;27.70;71.90;;;;;;10524920;28;20480;-43
2023/07/09 11:02:15;;;;;;;5.65;2.85;;;27.40;69.00;;;;;;10511120;28;20143;-35
2023/07/09 11:07:24;;;;;;;6.65;2.60;;;27.10;74.40;;;;;;10512283;28;20051;-39
2023/07/09 11:12:32;;;;;;;11.38;2.63;;;27.50;72.00;;;;;;10515201;28;20079;-37
2023/07/09 11:17:37;;;;;;;4.63;2.15;;;27.60;72.50;;;;;;10524526;28;20055;-38
2023/07/09 11:22:41;;;;;;;6.82;2.10;;;27.10;74.90;;;;;;10523341;28;20040;-36
2023/07/09 11:27:51;;;;;;;8.18;2.60;;;27.30;77.00;;;;;;10523386;28;20048;-39
2023/07/09 11:32:59;;;;;;;5.50;2.90;;;27.30;75.20;;;;;;10520398;28;20072;-39
2023/07/09 11:38:09;;;;;;;6.88;3.17;;;27.70;75.20;;;;;;10537075;28;20125;-39
2023/07/09 11:43:29;;;;;;;8.98;2.72;;;27.00;79.60;;;;;;10521883;28;20476;-37
2023/07/09 11:48:34;;;;;;;11.40;3.83;;;28.20;71.40;;;;;;10521849;28;20067;-40
2023/07/09 11:53:44;;;;;;;9.48;4.13;;;26.40;83.90;;;;;;10549914;28;20054;-39
2023/07/09 11:58:53;;;;;;;14.88;4.25;;;26.30;87.60;;;;;;10526417;28;20400;-37
2023/07/09 12:03:58;;;;;;;24.70;5.57;;;24.90;93.30;;;;;;10521359;28;20127;-35
2023/07/09 12:09:04;;;;;;;20.67;4.88;;;24.00;96.40;;;;;;10537607;28;20076;-40
2023/07/09 12:14:10;;;;;;;25.23;5.93;;;24.50;99.00;;;;;;10536128;28;20109;-35
2023/07/09 12:19:13;;;;;;;21.88;7.05;;;24.30;98.20;;;;;;10534728;28;20507;-38
2023/07/09 12:24:24;;;;;;;13.45;4.30;;;25.20;96.30;;;;;;10529384;28;20036;-38
2023/07/09 12:29:27;;;;;;;12.38;5.53;;;25.50;96.00;;;;;;10519901;28;20161;-38
2023/07/09 12:34:32;;;;;;;5.15;2.45;;;26.00;92.00;;;;;;10540824;28;20157;-37
2023/07/09 12:39:38;;;;;;;5.75;2.97;;;27.50;85.00;;;;;;10527648;28;20472;-36
2023/07/09 12:44:40;;;;;;;5.40;3.03;;;28.70;78.20;;;;;;10519347;28;20050;-37
2023/07/09 12:49:44;;;;;;;6.57;4.03;;;28.20;78.10;;;;;;10515491;28;20049;-37
2023/07/09 12:54:57;;;;;;;4.45;2.30;;;28.10;79.40;;;;;;10522335;28;20143;-36
2023/07/09 12:59:59;;;;;;;4.70;2.58;;;28.40;79.70;;;;;;10529689;28;20040;-36
2023/07/09 13:05:04;;;;;;;9.45;4.30;;;30.50;65.50;;;;;;10525392;28;20040;-38
2023/07/09 13:10:16;;;;;;;5.65;2.40;;;28.20;69.30;;;;;;10511751;28;20051;-36
2023/07/09 13:15:27;;;;;;;9.65;4.25;;;29.50;68.10;;;;;;10535975;28;20097;-39
2023/07/09 13:20:30;;;;;;;8.82;3.70;;;29.50;62.90;;;;;;10524664;28;20123;-39
2023/07/09 13:25:35;;;;;;;4.97;2.83;;;29.50;64.60;;;;;;10523168;28;20047;-37
2023/07/09 13:30:37;;;;;;;7.53;3.00;;;29.90;65.10;;;;;;10520521;28;20048;-37
2023/07/09 13:35:39;;;;;;;5.57;2.95;;;30.50;62.80;;;;;;10513895;28;20079;-38
2023/07/09 13:40:44;;;;;;;4.13;2.30;;;31.30;60.20;;;;;;10518173;28;20048;-34
2023/07/09 13:45:48;;;;;;;3.58;2.30;;;31.00;60.60;;;;;;10528448;28;20047;-35
2023/07/09 13:50:52;;;;;;;7.22;3.50;;;31.50;59.30;;;;;;10527484;28;20131;-34
2023/07/09 13:55:55;;;;;;;5.65;2.25;;;29.10;64.70;;;;;;10527853;28;20480;-42
2023/07/09 14:01:04;;;;;;;6.75;2.80;;;31.20;60.50;;;;;;10525904;28;20135;-37
2023/07/09 14:06:06;;;;;;;3.72;2.35;;;31.60;59.20;;;;;;10516363;28;20109;-34
2023/07/09 14:11:12;;;;;;;4.82;2.38;;;31.60;58.60;;;;;;10518623;28;20051;-37
2023/07/09 14:16:15;;;;;;;4.18;2.28;;;31.70;58.40;;;;;;10514571;28;20048;-39
2023/07/09 14:21:21;;;;;;;5.47;2.13;;;29.70;64.70;;;;;;10516497;28;20044;-38
2023/07/09 14:26:24;;;;;;;4.88;2.28;;;31.30;59.90;;;;;;10523743;28;20082;-38
2023/07/09 14:31:31;;;;;;;5.00;2.38;;;31.60;59.00;;;;;;10515682;28;20399;-38
2023/07/09 14:36:34;;;;;;;3.97;2.40;;;31.60;58.80;;;;;;10513051;28;20051;-36
2023/07/09 14:41:37;;;;;;;5.88;2.08;;;31.70;58.50;;;;;;10533184;28;20104;-34
2023/07/09 14:46:39;;;;;;;6.03;2.13;;;31.70;58.30;;;;;;10524872;28;20465;-34
2023/07/09 14:51:42;;;;;;;4.50;2.25;;;31.70;58.30;;;;;;10514507;28;20105;-37
2023/07/09 14:56:45;;;;;;;4.90;2.25;;;31.70;58.20;;;;;;10523535;28;20058;-35
2023/07/09 15:01:47;;;;;;;3.50;2.10;;;31.70;58.20;;;;;;10521939;28;20118;-37
2023/07/09 15:06:50;;;;;;;4.35;2.13;;;31.70;58.20;;;;;;10524394;28;20126;-38
2023/07/09 15:11:55;;;;;;;5.00;2.38;;;30.00;64.40;;;;;;10522186;28;20075;-35
2023/07/09 15:16:57;;;;;;;3.08;2.05;;;31.30;60.00;;;;;;10524699;28;20089;-37
2023/07/09 15:21:59;;;;;;;6.47;2.70;;;30.30;62.40;;;;;;10518035;28;20139;-36
2023/07/09 15:27:04;;;;;;;4.03;2.83;;;30.20;61.70;;;;;;10522856;28;20056;-40
2023/07/09 15:32:07;;;;;;;4.60;2.25;;;30.20;62.70;;;;;;10515721;28;20052;-36
2023/07/09 15:37:14;;;;;;;5.25;2.40;;;30.50;61.60;;;;;;10513266;28;20143;-37
2023/07/09 15:42:17;;;;;;;5.68;2.10;;;29.30;65.50;;;;;;10516053;28;20143;-35
2023/07/09 15:47:27;;;;;;;5.10;2.45;;;30.70;61.90;;;;;;10517205;28;20041;-35
2023/07/09 15:52:29;;;;;;;3.85;1.60;;;30.40;58.60;;;;;;10518482;28;20042;-40
2023/07/09 15:57:32;;;;;;;4.63;1.60;;;31.30;60.90;;;;;;10515703;28;20121;-41
2023/07/09 16:02:34;;;;;;;2.33;1.40;;;30.80;61.20;;;;;;10515650;28;20066;-38
2023/07/09 16:07:36;;;;;;;3.40;1.88;;;31.30;59.70;;;;;;10530723;28;20075;-38
2023/07/09 16:12:40;;;;;;;2.42;1.83;;;31.70;58.60;;;;;;10523908;28;20098;-40
2023/07/09 16:17:42;;;;;;;3.92;1.58;;;32.00;57.70;;;;;;10507634;28;20112;-37
2023/07/09 16:22:48;;;;;;;6.97;2.33;;;31.10;57.10;;;;;;10520519;28;20051;-39
2023/07/09 16:27:51;;;;;;;6.43;2.50;;;29.60;60.80;;;;;;10526055;28;20043;-40
2023/07/09 16:32:53;;;;;;;5.40;2.47;;;29.50;62.40;;;;;;10513024;28;20204;-37
2023/07/09 16:37:56;;;;;;;6.75;2.70;;;30.50;62.20;;;;;;10514923;28;20500;-39
2023/07/09 16:43:01;;;;;;;9.10;2.90;;;30.00;65.10;;;;;;10519594;28;20052;-44
2023/07/09 16:48:03;;;;;;;9.57;3.30;;;29.30;63.60;;;;;;10514670;28;20472;-35
2023/07/09 16:53:13;;;;;;;8.25;2.75;;;29.30;67.40;;;;;;10530443;28;20047;-42
2023/07/09 16:58:24;;;;;;;8.10;2.95;;;30.20;60.50;;;;;;10524366;28;20105;-40
2023/07/09 17:03:26;;;;;;;8.30;2.60;;;28.90;67.80;;;;;;10515584;28;20048;-37
2023/07/09 17:08:28;;;;;;;9.43;3.47;;;29.20;62.40;;;;;;10526396;28;20042;-39
2023/07/09 17:13:31;;;;;;;7.38;2.55;;;27.10;71.80;;;;;;10512590;28;20048;-36
2023/07/09 17:18:33;;;;;;;8.93;3.50;;;25.80;81.10;;;;;;10513846;28;20134;-32
2023/07/09 17:23:35;;;;;;;4.15;1.98;;;28.30;76.10;;;;;;10505410;28;20044;-40
2023/07/09 17:28:38;;;;;;;7.57;2.58;;;30.10;68.60;;;;;;10510366;28;20052;-37
2023/07/09 17:33:40;;;;;;;7.22;2.13;;;30.40;71.70;;;;;;10501616;28;20470;-43
2023/07/09 17:38:42;;;;;;;6.03;2.13;;;31.00;66.40;;;;;;10506960;28;20047;-41
2023/07/09 17:43:45;;;;;;;4.65;2.35;;;30.30;62.60;;;;;;10522017;28;20057;-34
2023/07/09 17:48:47;;;;;;;4.45;2.33;;;30.30;63.30;;;;;;10522440;28;20044;-34
2023/07/09 17:53:49;;;;;;;3.35;1.88;;;31.10;60.90;;;;;;10516941;28;20082;-33
2023/07/09 17:58:52;;;;;;;3.72;2.03;;;31.30;59.70;;;;;;10535389;28;20134;-30
2023/07/09 18:03:54;;;;;;;2.40;1.63;;;31.40;59.30;;;;;;10520470;28;20040;-36
2023/07/09 18:08:57;;;;;;;5.40;1.70;;;31.30;58.90;;;;;;10535823;28;20079;-33
2023/07/09 18:14:00;;;;;;;7.43;2.05;;;31.40;58.70;;;;;;10523204;28;20091;-35
2023/07/09 18:19:04;;;;;;;4.82;2.25;;;31.40;58.50;;;;;;10522123;28;20101;-35
2023/07/09 18:24:06;;;;;;;4.90;1.90;;;31.30;58.10;;;;;;10525649;28;20040;-33
2023/07/09 18:29:20;;;;;;;4.53;1.67;;;31.50;58.10;;;;;;10531193;28;20079;-38
2023/07/09 18:34:22;;;;;;;6.53;2.35;;;31.40;58.50;;;;;;10523376;28;20147;-34
2023/07/09 18:39:23;;;;;;;4.97;1.70;;;31.50;58.20;;;;;;10534401;28;20052;-36
2023/07/09 18:44:27;;;;;;;4.85;1.70;;;31.40;57.90;;;;;;10514514;28;20568;-40
2023/07/09 18:49:29;;;;;;;3.35;1.90;;;31.40;57.70;;;;;;10535642;28;20044;-40
2023/07/09 18:54:31;;;;;;;5.40;2.13;;;31.40;57.70;;;;;;10527826;28;20051;-38
2023/07/09 18:59:35;;;;;;;10.35;2.45;;;31.40;57.60;;;;;;10509374;28;20049;-35
2023/07/09 19:04:37;;;;;;;12.38;2.38;;;31.40;57.60;;;;;;10523544;28;20044;-41
2023/07/09 19:09:38;;;;;;;10.30;2.50;;;31.30;57.50;;;;;;10521861;28;20130;-40
2023/07/09 19:14:42;;;;;;;12.70;2.67;;;31.00;57.80;;;;;;10517232;28;20059;-37
2023/07/09 19:19:44;;;;;;;7.60;2.55;;;31.10;57.90;;;;;;10515088;28;20068;-39
2023/07/09 19:24:46;;;;;;;16.60;3.15;;;31.20;57.60;;;;;;10509070;28;20496;-40
2023/07/09 19:29:50;;;;;;;11.20;2.60;;;31.20;57.60;;;;;;10524175;28;20501;-33
2023/07/09 19:34:52;;;;;;;7.40;2.45;;;31.10;57.40;;;;;;10522850;28;20071;-36
2023/07/09 19:39:54;;;;;;;10.15;2.60;;;31.10;57.30;;;;;;10523096;28;20044;-35
2023/07/09 19:44:57;;;;;;;17.23;3.15;;;31.10;57.30;;;;;;10527737;28;20044;-35
2023/07/09 19:49:59;;;;;;;8.82;2.45;;;31.10;57.30;;;;;;10528656;28;20139;-39
2023/07/09 19:55:12;;;;;;;7.47;2.13;;;31.10;57.20;;;;;;10521465;28;20131;-37
2023/07/09 20:00:17;;;;;;;6.50;1.95;;;31.00;57.10;;;;;;10532255;28;20047;-37
2023/07/09 20:05:22;;;;;;;5.38;2.30;;;31.00;57.10;;;;;;10528337;28;20121;-32
2023/07/09 20:10:24;;;;;;;4.43;1.83;;;31.00;57.30;;;;;;10527022;28;20133;-33
2023/07/09 20:15:28;;;;;;;5.75;2.40;;;30.90;57.10;;;;;;10523329;28;20062;-35
2023/07/09 20:20:30;;;;;;;5.22;2.30;;;30.90;57.00;;;;;;10528483;28;20089;-32
2023/07/09 20:25:32;;;;;;;5.80;1.65;;;30.90;57.00;;;;;;10530048;28;20448;-35
2023/07/09 20:30:36;;;;;;;4.22;1.85;;;30.80;57.00;;;;;;10521198;28;20127;-35
2023/07/09 20:35:38;;;;;;;4.63;1.35;;;30.80;57.00;;;;;;10529151;28;20052;-37
2023/07/09 20:40:40;;;;;;;2.22;1.30;;;30.70;57.10;;;;;;10525914;28;20115;-32
2023/07/09 20:45:44;;;;;;;6.47;1.60;;;30.70;57.30;;;;;;10520929;28;20113;-38
2023/07/09 20:50:47;;;;;;;2.25;1.30;;;30.60;57.30;;;;;;10528204;28;20040;-34
2023/07/09 20:55:49;;;;;;;3.10;1.48;;;30.60;57.50;;;;;;10532904;28;20055;-34
2023/07/09 21:00:53;;;;;;;6.15;1.70;;;30.60;57.50;;;;;;10527025;28;20483;-34
2023/07/09 21:05:56;;;;;;;4.60;1.70;;;30.50;57.60;;;;;;10524652;28;20079;-30
2023/07/09 21:10:57;;;;;;;4.35;1.52;;;30.50;57.60;;;;;;10518166;28;20160;-33
2023/07/09 21:16:01;;;;;;;3.00;1.63;;;30.50;57.70;;;;;;10530402;28;20148;-34
2023/07/09 21:21:04;;;;;;;3.33;1.48;;;30.50;57.80;;;;;;10515627;28;20155;-37
2023/07/09 21:26:06;;;;;;;3.97;1.55;;;30.50;57.80;;;;;;10531495;28;20051;-35
2023/07/09 21:31:16;;;;;;;5.97;1.58;;;30.40;57.80;;;;;;10524422;28;20052;-35
2023/07/09 21:36:19;;;;;;;4.00;1.33;;;30.30;57.80;;;;;;10515984;28;20143;-35
2023/07/09 21:41:21;;;;;;;3.53;1.33;;;30.30;58.00;;;;;;10511170;28;20044;-32
2023/07/09 21:46:28;;;;;;;5.38;1.58;;;30.30;58.10;;;;;;10511802;28;20048;-36
2023/07/09 21:51:30;;;;;;;4.75;1.65;;;30.30;58.20;;;;;;10519507;28;20054;-38
2023/07/09 21:56:32;;;;;;;4.15;1.92;;;30.30;58.10;;;;;;10528592;28;20141;-33
2023/07/09 22:01:35;;;;;;;6.57;1.27;;;30.20;58.10;;;;;;10532481;28;20072;-34
2023/07/09 22:06:37;;;;;;;4.97;1.60;;;30.20;58.30;;;;;;10526232;28;20040;-35
2023/07/09 22:11:48;;;;;;;3.00;1.30;;;30.20;58.80;;;;;;10532265;28;20102;-35
2023/07/09 22:16:52;;;;;;;3.93;1.50;;;30.20;58.30;;;;;;10532041;28;20097;-32
2023/07/09 22:21:54;;;;;;;3.83;1.60;;;30.10;58.40;;;;;;10529760;28;20044;-35
2023/07/09 22:26:56;;;;;;;2.25;1.42;;;30.10;58.40;;;;;;10526448;28;20453;-38
2023/07/09 22:31:59;;;;;;;5.03;1.70;;;30.10;58.40;;;;;;10524428;28;20118;-36
2023/07/09 22:37:00;;;;;;;4.40;1.45;;;30.00;58.40;;;;;;10516360;28;20080;-34
2023/07/09 22:42:02;;;;;;;5.45;1.63;;;30.00;58.40;;;;;;10525138;28;20142;-32
2023/07/09 22:47:06;;;;;;;4.07;1.80;;;30.00;58.50;;;;;;10531932;28;20072;-34
2023/07/09 22:52:10;;;;;;;2.70;1.17;;;30.00;58.50;;;;;;10524217;28;20067;-35
2023/07/09 22:57:12;;;;;;;4.70;1.80;;;30.00;58.50;;;;;;10520993;28;20477;-33
2023/07/09 23:02:15;;;;;;;2.50;1.40;;;29.90;58.60;;;;;;10531121;28;20089;-37
2023/07/09 23:07:17;;;;;;;4.22;1.67;;;29.90;58.70;;;;;;10532248;28;20036;-38
2023/07/09 23:12:19;;;;;;;3.17;1.58;;;29.90;58.70;;;;;;10516594;28;20512;-35
2023/07/09 23:17:23;;;;;;;5.13;1.58;;;29.90;58.80;;;;;;10535628;28;20142;-32
2023/07/09 23:22:25;;;;;;;2.72;1.50;;;29.80;58.70;;;;;;10526276;28;20489;-39
2023/07/09 23:27:28;;;;;;;3.17;1.30;;;29.80;58.80;;;;;;10519986;28;20044;-32
2023/07/09 23:32:31;;;;;;;3.38;1.27;;;29.80;58.90;;;;;;10539733;28;20051;-35
2023/07/09 23:37:33;;;;;;;3.47;1.52;;;29.80;59.00;;;;;;10537506;28;20079;-32
2023/07/09 23:42:34;;;;;;;4.20;1.63;;;29.70;58.90;;;;;;10537529;28;20130;-34
2023/07/09 23:47:38;;;;;;;2.88;1.58;;;29.70;59.00;;;;;;10535039;28;20469;-37
2023/07/09 23:52:39;;;;;;;4.65;1.52;;;29.70;59.00;;;;;;10536574;28;20130;-37
2023/07/09 23:57:48;;;;;;;4.43;1.75;;;29.60;59.10;;;;;;10536581;28;20143;-36
